createdAt,value
2019-01-12T00:00:47.571Z,-3.3
2019-01-12T00:01:37.904Z,-3.3
2019-01-12T00:02:27.673Z,-3.2
2019-01-12T00:03:18.007Z,-3.3
2019-01-12T00:04:07.791Z,-3.3
2019-01-12T00:04:58.133Z,-3.3
2019-01-12T00:05:48.177Z,-3.3
2019-01-12T00:06:38.235Z,-3.2
2019-01-12T00:07:28.016Z,-3.3
2019-01-12T00:08:18.116Z,-3.3
2019-01-12T00:09:08.140Z,-3.3
2019-01-12T00:09:58.460Z,-3.3
2019-01-12T00:10:48.241Z,-3.3
2019-01-12T00:11:38.575Z,-3.3
2019-01-12T00:12:28.361Z,-3.3
2019-01-12T00:13:18.699Z,-3.3
2019-01-12T00:14:08.745Z,-3.3
2019-01-12T00:14:58.543Z,-3.3
2019-01-12T00:15:48.590Z,-3.3
2019-01-12T00:34:10.751Z,-3.3
2019-01-12T00:35:00.791Z,-3.3
2019-01-12T00:35:50.863Z,-3.3
2019-01-12T00:36:40.911Z,-3.3
2019-01-12T00:37:30.963Z,-3.3
2019-01-12T00:38:21.021Z,-3.3
2019-01-12T00:39:10.796Z,-3.3
2019-01-12T00:40:01.139Z,-3.3
2019-01-12T00:40:51.179Z,-3.3
2019-01-12T00:41:40.954Z,-3.3
2019-01-12T00:42:31.295Z,-3.3
2019-01-12T00:43:21.388Z,-3.3
2019-01-12T00:44:11.131Z,-3.3
2019-01-12T00:45:01.466Z,-3.3
2019-01-12T00:45:51.523Z,-3.3
2019-01-12T00:46:41.573Z,-3.3
2019-01-12T00:47:33.253Z,-3.3
2019-01-12T00:48:20.913Z,-3.3
2019-01-12T00:49:11.744Z,-3.3
2019-01-12T00:50:01.800Z,-3.3
2019-01-12T00:50:51.855Z,-3.3
2019-01-12T00:51:41.678Z,-3.3
2019-01-12T00:52:31.965Z,-3.3
2019-01-12T00:53:21.748Z,-3.3
2019-01-12T00:54:12.079Z,-3.3
2019-01-12T00:55:01.871Z,-3.3
2019-01-12T00:55:52.197Z,-3.3
2019-01-12T00:56:42.252Z,-3.3
2019-01-12T00:57:32.307Z,-3.3
2019-01-12T00:58:22.362Z,-3.4
2019-01-12T00:59:12.420Z,-3.4
2019-01-12T01:00:02.490Z,-3.3
2019-01-12T01:00:52.542Z,-3.4
2019-01-12T01:01:42.595Z,-3.4
2019-01-12T01:02:32.647Z,-3.4
2019-01-12T01:03:22.423Z,-3.4
2019-01-12T01:04:12.760Z,-3.4
2019-01-12T01:05:02.582Z,-3.4
2019-01-12T01:05:52.885Z,-3.4
2019-01-12T01:06:42.934Z,-3.4
2019-01-12T01:07:32.994Z,-3.4
2019-01-12T01:08:23.037Z,-3.4
2019-01-12T01:09:13.098Z,-3.4
2019-01-12T01:10:02.886Z,-3.4
2019-01-12T01:10:52.954Z,-3.4
2019-01-12T01:11:43.008Z,-3.4
2019-01-12T01:12:32.781Z,-3.4
2019-01-12T01:13:23.114Z,-3.4
2019-01-12T01:14:13.442Z,-3.4
2019-01-12T01:15:03.561Z,-3.5
2019-01-12T01:15:53.547Z,-3.5
2019-01-12T01:16:43.344Z,-3.5
2019-01-12T01:17:33.666Z,-3.5
2019-01-12T01:18:23.452Z,-3.5
2019-01-12T01:19:13.779Z,-3.5
2019-01-12T01:20:03.570Z,-3.5
2019-01-12T01:20:53.616Z,-3.5
2019-01-12T01:21:43.676Z,-3.5
2019-01-12T01:22:34.006Z,-3.6
2019-01-12T01:23:23.788Z,-3.6
2019-01-12T01:24:14.118Z,-3.6
2019-01-12T01:25:03.952Z,-3.6
2019-01-12T01:25:53.963Z,-3.6
2019-01-12T01:26:44.287Z,-3.6
2019-01-12T01:27:34.077Z,-3.6
2019-01-12T01:28:24.405Z,-3.6
2019-01-12T01:29:14.183Z,-3.6
2019-01-12T01:30:04.525Z,-3.6
2019-01-12T01:30:54.633Z,-3.6
2019-01-12T01:31:44.634Z,-3.6
2019-01-12T01:32:34.475Z,-3.6
2019-01-12T01:33:29.176Z,-3.6
2019-01-12T01:34:14.796Z,-3.6
2019-01-12T01:35:04.912Z,-3.6
2019-01-12T01:35:54.910Z,-3.7
2019-01-12T01:36:44.980Z,-3.7
2019-01-12T01:37:35.025Z,-3.7
2019-01-12T01:38:25.077Z,-3.7
2019-01-12T01:39:14.866Z,-3.7
2019-01-12T01:40:04.640Z,-3.7
2019-01-12T01:40:55.244Z,-3.7
2019-01-12T01:46:45.091Z,-3.8
2019-01-12T01:47:35.699Z,-3.8
2019-01-12T01:48:25.767Z,-3.8
2019-01-12T01:49:15.545Z,-3.8
2019-01-12T01:50:05.867Z,-3.8
2019-01-12T01:50:55.929Z,-3.8
2019-01-12T01:51:45.996Z,-3.9
2019-01-12T01:52:35.774Z,-3.9
2019-01-12T01:53:25.816Z,-3.9
2019-01-12T01:54:16.155Z,-3.9
2019-01-12T01:55:06.209Z,-3.9
2019-01-12T01:55:56.264Z,-3.9
2019-01-12T01:56:46.372Z,-3.9
2019-01-12T01:57:36.394Z,-3.9
2019-01-12T01:58:26.440Z,-3.9
2019-01-12T01:59:16.486Z,-3.9
2019-01-12T02:00:06.561Z,-3.9
2019-01-12T02:00:56.614Z,-3.9
2019-01-12T02:01:46.131Z,-4
2019-01-12T02:02:36.713Z,-3.9
2019-01-12T02:03:26.779Z,-4
2019-01-12T02:04:16.566Z,-4
2019-01-12T02:05:06.612Z,-4
2019-01-12T02:05:56.400Z,-4
2019-01-12T02:06:47.010Z,-4
2019-01-12T02:07:37.061Z,-4.1
2019-01-12T02:08:27.119Z,-4.1
2019-01-12T02:09:17.173Z,-4.1
2019-01-12T02:10:07.225Z,-4.1
2019-01-12T02:10:56.733Z,-4.1
2019-01-12T02:11:47.342Z,-4.1
2019-01-12T02:12:37.115Z,-4.1
2019-01-12T02:13:27.181Z,-4.1
2019-01-12T02:14:17.507Z,-4.1
2019-01-12T02:15:07.293Z,-4.1
2019-01-12T02:15:57.626Z,-4.1
2019-01-12T02:16:47.687Z,-4.2
2019-01-12T02:17:37.788Z,-4.2
2019-01-12T02:18:27.794Z,-4.2
2019-01-12T02:19:17.855Z,-4.2
2019-01-12T02:20:07.905Z,-4.2
2019-01-12T02:20:57.697Z,-4.3
2019-01-12T02:21:48.025Z,-4.3
2019-01-12T02:22:38.083Z,-4.3
2019-01-12T02:23:28.138Z,-4.3
2019-01-12T02:24:17.920Z,-4.3
2019-01-12T02:25:08.255Z,-4.3
2019-01-12T02:25:58.304Z,-4.3
2019-01-12T02:26:47.807Z,-4.3
2019-01-12T02:27:37.862Z,-4.3
2019-01-12T02:28:28.485Z,-4.3
2019-01-12T02:29:18.527Z,-4.3
2019-01-12T02:30:08.606Z,-4.3
2019-01-12T02:30:58.647Z,-4.3
2019-01-12T02:31:48.723Z,-4.3
2019-01-12T02:32:38.824Z,-4.4
2019-01-12T02:33:28.813Z,-4.4
2019-01-12T02:34:18.867Z,-4.4
2019-01-12T02:35:08.930Z,-4.4
2019-01-12T02:35:58.989Z,-4.4
2019-01-12T02:36:49.116Z,-4.4
2019-01-12T02:37:39.103Z,-4.4
2019-01-12T02:38:28.884Z,-4.4
2019-01-12T02:39:19.217Z,-4.4
2019-01-12T02:40:08.763Z,-4.4
2019-01-12T02:40:59.046Z,-4.4
2019-01-12T02:41:49.108Z,-4.4
2019-01-12T02:42:39.441Z,-4.4
2019-01-12T02:43:28.947Z,-4.4
2019-01-12T02:44:19.544Z,-4.4
2019-01-12T02:45:09.328Z,-4.4
2019-01-12T02:45:59.674Z,-4.4
2019-01-12T02:46:49.447Z,-4.4
2019-01-12T02:47:39.521Z,-4.5
2019-01-12T02:48:29.852Z,-4.5
2019-01-12T02:49:19.916Z,-4.5
2019-01-12T02:50:09.958Z,-4.5
2019-01-12T02:51:00.016Z,-4.5
2019-01-12T02:51:50.074Z,-4.5
2019-01-12T02:52:39.849Z,-4.5
2019-01-12T02:53:30.188Z,-4.6
2019-01-12T02:54:20.233Z,-4.5
2019-01-12T02:55:10.751Z,-4.5
2019-01-12T02:56:00.350Z,-4.5
2019-01-12T02:56:50.400Z,-4.6
2019-01-12T02:57:40.476Z,-4.6
2019-01-12T02:58:30.532Z,-4.6
2019-01-12T02:59:20.295Z,-4.6
2019-01-12T03:00:10.669Z,-4.6
2019-01-12T03:01:00.720Z,-4.6
2019-01-12T03:01:50.747Z,-4.6
2019-01-12T03:02:40.800Z,-4.6
2019-01-12T03:03:30.859Z,-4.6
2019-01-12T03:04:20.641Z,-4.6
2019-01-12T03:05:11.003Z,-4.6
2019-01-12T03:06:00.764Z,-4.6
2019-01-12T03:06:51.097Z,-4.6
2019-01-12T03:07:41.164Z,-4.6
2019-01-12T03:08:31.197Z,-4.6
2019-01-12T03:09:21.252Z,-4.6
2019-01-12T03:10:11.313Z,-4.6
2019-01-12T03:11:01.374Z,-4.6
2019-01-12T03:11:51.434Z,-4.6
2019-01-12T03:12:41.487Z,-4.6
2019-01-12T03:13:31.558Z,-4.6
2019-01-12T03:14:21.613Z,-4.6
2019-01-12T03:15:11.392Z,-4.6
2019-01-12T03:16:01.452Z,-4.6
2019-01-12T03:16:51.498Z,-4.6
2019-01-12T03:17:41.838Z,-4.6
2019-01-12T03:18:31.876Z,-4.6
2019-01-12T03:19:21.922Z,-4.7
2019-01-12T03:20:11.999Z,-4.6
2019-01-12T03:21:02.112Z,-4.7
2019-01-12T03:21:52.116Z,-4.6
2019-01-12T03:22:42.167Z,-4.7
2019-01-12T03:23:31.991Z,-4.7
2019-01-12T03:24:22.283Z,-4.7
2019-01-12T03:25:20.391Z,-4.7
2019-01-12T03:26:01.859Z,-4.7
2019-01-12T03:26:52.446Z,-4.7
2019-01-12T03:27:41.963Z,-4.7
2019-01-12T03:28:32.569Z,-4.7
2019-01-12T03:29:22.619Z,-4.7
2019-01-12T03:30:12.721Z,-4.7
2019-01-12T03:31:02.807Z,-4.7
2019-01-12T03:31:52.857Z,-4.7
2019-01-12T03:32:42.609Z,-4.7
2019-01-12T03:33:33.008Z,-4.7
2019-01-12T03:34:22.951Z,-4.7
2019-01-12T03:35:12.736Z,-4.7
2019-01-12T03:36:02.786Z,-4.7
2019-01-12T03:36:52.835Z,-4.8
2019-01-12T03:37:43.181Z,-4.7
2019-01-12T03:38:32.685Z,-4.8
2019-01-12T03:39:22.997Z,-4.7
2019-01-12T03:40:13.356Z,-4.7
2019-01-12T03:41:03.416Z,-4.7
2019-01-12T03:41:52.901Z,-4.8
2019-01-12T03:42:43.510Z,-4.7
2019-01-12T03:43:33.567Z,-4.8
2019-01-12T03:44:23.637Z,-4.8
2019-01-12T03:45:13.699Z,-4.8
2019-01-12T03:46:03.505Z,-4.8
2019-01-12T03:46:53.797Z,-4.8
2019-01-12T03:47:43.579Z,-4.8
2019-01-12T03:48:33.637Z,-4.8
2019-01-12T03:49:23.687Z,-4.8
2019-01-12T03:50:14.029Z,-4.8
2019-01-12T03:51:04.087Z,-4.8
2019-01-12T03:51:54.133Z,-4.8
2019-01-12T03:52:44.191Z,-4.8
2019-01-12T03:53:34.266Z,-4.8
2019-01-12T03:54:24.307Z,-4.8
2019-01-12T03:55:14.116Z,-4.8
2019-01-12T03:56:04.144Z,-4.8
2019-01-12T03:56:54.196Z,-4.8
2019-01-12T03:57:44.559Z,-4.8
2019-01-12T03:58:34.590Z,-4.8
2019-01-12T03:59:24.634Z,-4.8
2019-01-12T04:00:14.694Z,-4.8
2019-01-12T04:01:04.801Z,-4.8
2019-01-12T04:01:54.568Z,-4.8
2019-01-12T04:02:44.862Z,-4.8
2019-01-12T04:03:34.708Z,-4.9
2019-01-12T04:04:24.981Z,-4.9
2019-01-12T04:05:14.774Z,-4.8
2019-01-12T04:06:05.095Z,-4.9
2019-01-12T04:06:55.151Z,-4.9
2019-01-12T04:07:45.208Z,-4.9
2019-01-12T04:08:35.275Z,-4.9
2019-01-12T04:09:25.062Z,-4.9
2019-01-12T04:10:15.402Z,-4.9
2019-01-12T04:11:05.443Z,-4.9
2019-01-12T04:11:55.218Z,-4.9
2019-01-12T04:12:45.549Z,-4.9
2019-01-12T04:13:35.623Z,-4.9
2019-01-12T04:14:25.395Z,-4.9
2019-01-12T04:15:15.752Z,-4.9
2019-01-12T04:16:05.775Z,-4.9
2019-01-12T04:16:55.831Z,-4.9
2019-01-12T04:17:45.902Z,-4.9
2019-01-12T04:18:35.935Z,-4.9
2019-01-12T04:19:26.005Z,-4.9
2019-01-12T04:20:15.800Z,-4.9
2019-01-12T04:21:05.852Z,-4.9
2019-01-12T04:21:55.897Z,-4.9
2019-01-12T04:22:46.222Z,-4.9
2019-01-12T04:23:36.306Z,-4.9
2019-01-12T04:24:26.340Z,-4.9
2019-01-12T04:25:34.780Z,-4.9
2019-01-12T04:26:06.457Z,-4.9
2019-01-12T04:26:56.507Z,-4.9
2019-01-12T04:27:46.309Z,-4.9
2019-01-12T04:28:36.644Z,-4.9
2019-01-12T04:29:26.704Z,-4.9
2019-01-12T04:30:16.741Z,-4.9
2019-01-12T04:31:06.874Z,-4.9
2019-01-12T04:31:56.862Z,-4.9
2019-01-12T04:32:46.369Z,-4.9
2019-01-12T04:33:36.683Z,-5
2019-01-12T04:34:27.021Z,-5
2019-01-12T04:35:17.072Z,-4.9
2019-01-12T04:36:07.128Z,-5
2019-01-12T04:36:57.184Z,-4.9
2019-01-12T04:37:47.265Z,-5
2019-01-12T04:38:36.797Z,-5
2019-01-12T04:39:27.382Z,-5
2019-01-12T04:40:17.208Z,-5
2019-01-12T04:41:07.204Z,-5
2019-01-12T04:41:57.536Z,-5
2019-01-12T04:42:47.607Z,-5
2019-01-12T04:43:37.358Z,-5
2019-01-12T04:44:27.422Z,-5
2019-01-12T04:45:17.753Z,-5
2019-01-12T04:46:07.815Z,-5
2019-01-12T05:03:21.007Z,-5.1
2019-01-12T05:04:11.097Z,-5.1
2019-01-12T05:05:02.615Z,-5.1
2019-01-12T05:06:05.608Z,-5.1
2019-01-12T05:07:37.554Z,-5.1
2019-01-12T05:08:27.437Z,-5.1
2019-01-12T05:09:18.164Z,-5.1
2019-01-12T05:10:07.999Z,-5
2019-01-12T05:10:58.062Z,-5.1
2019-01-12T05:12:46.913Z,-5
2019-01-12T05:13:36.391Z,-5
2019-01-12T05:14:26.690Z,-5.1
2019-01-12T05:15:16.546Z,-5
2019-01-12T05:16:06.295Z,-5
2019-01-12T05:16:56.856Z,-5
2019-01-12T05:17:47.006Z,-5.1
2019-01-12T05:18:37.025Z,-5
2019-01-12T05:19:27.030Z,-5
2019-01-12T05:20:22.857Z,-5
2019-01-12T05:21:13.141Z,-5.1
2019-01-12T05:22:02.724Z,-5
2019-01-12T05:22:53.044Z,-5
2019-01-12T05:23:43.355Z,-5
2019-01-12T09:17:44.145Z,-2.2
2019-01-12T09:18:34.196Z,-2.2
2019-01-12T09:19:23.982Z,-2.1
2019-01-12T09:20:14.358Z,-2.1
2019-01-12T09:21:04.363Z,-2.1
2019-01-12T09:21:54.410Z,-2.1
2019-01-12T09:22:44.468Z,-2
2019-01-12T09:23:34.523Z,-1.9
2019-01-12T09:24:24.589Z,-1.9
2019-01-12T09:25:14.638Z,-1.9
2019-01-12T09:26:04.693Z,-1.9
2019-01-12T09:26:54.475Z,-1.8
2019-01-12T09:27:44.810Z,-1.8
2019-01-12T09:28:34.867Z,-1.8
2019-01-12T09:29:24.922Z,-1.7
2019-01-12T09:30:14.445Z,-1.6
2019-01-12T09:31:04.750Z,-1.6
2019-01-12T09:31:55.092Z,-1.6
2019-01-12T09:32:44.880Z,-1.5
2019-01-12T09:33:35.252Z,-1.5
2019-01-12T09:34:25.265Z,-1.4
2019-01-12T09:35:15.322Z,-1.4
2019-01-12T09:36:05.116Z,-1.4
2019-01-12T09:36:55.438Z,-1.3
2019-01-12T09:37:45.500Z,-1.3
2019-01-12T09:38:35.269Z,-1.2
2019-01-12T09:39:25.319Z,-1.2
2019-01-12T09:40:15.664Z,-1.8
2019-01-12T09:41:05.722Z,3.1
2019-01-12T09:41:55.780Z,28
2019-01-12T09:42:45.843Z,35.1
2019-01-12T09:43:35.896Z,31.1
2019-01-12T09:44:25.970Z,29.7
2019-01-12T09:45:16.003Z,28.4
2019-01-12T09:46:06.062Z,27.4
2019-01-12T09:46:56.117Z,26.7
2019-01-12T09:47:46.181Z,26.1
2019-01-12T09:48:36.277Z,25.5
2019-01-12T09:49:26.292Z,25
2019-01-12T09:50:16.349Z,24.6
2019-01-12T09:51:06.406Z,24.1
2019-01-12T09:51:56.469Z,23.8
2019-01-12T09:52:46.240Z,23.4
2019-01-12T09:53:36.574Z,23
2019-01-12T09:54:26.367Z,22.6
2019-01-12T09:55:16.705Z,22.3
2019-01-12T09:56:06.739Z,21.9
2019-01-12T09:56:56.815Z,21.6
2019-01-12T09:57:46.976Z,21.3
2019-01-12T09:58:36.910Z,20.9
2019-01-12T09:59:28.511Z,20.7
2019-01-12T10:00:16.763Z,20.4
2019-01-12T10:01:06.809Z,20.1
2019-01-12T10:01:57.274Z,22.4
2019-01-12T10:02:46.931Z,28.8
2019-01-12T10:03:37.324Z,34.5
2019-01-12T10:04:27.326Z,41.8
2019-01-12T10:05:17.094Z,41.2
2019-01-12T10:06:07.441Z,40.7
2019-01-12T10:06:57.221Z,40.3
2019-01-12T10:07:47.542Z,39
2019-01-12T10:08:37.594Z,38
2019-01-12T10:09:27.654Z,37.3
2019-01-12T10:10:17.711Z,36.8
2019-01-12T10:11:07.768Z,36.2
2019-01-12T10:11:57.825Z,35.6
2019-01-12T10:12:47.591Z,35.1
2019-01-12T10:13:37.383Z,34.7
2019-01-12T10:14:27.983Z,34.2
2019-01-12T10:15:18.057Z,33.8
2019-01-12T10:16:08.111Z,33.3
2019-01-12T10:16:58.161Z,34.6
2019-01-12T10:17:48.231Z,39.2
2019-01-12T10:18:37.995Z,42.8
2019-01-12T10:19:28.331Z,43.9
2019-01-12T10:20:18.116Z,44.3
2019-01-12T10:21:08.166Z,46.4
2019-01-12T10:21:58.506Z,46.8
2019-01-12T10:22:48.011Z,46.9
2019-01-12T10:23:38.098Z,46.8
2019-01-12T10:24:28.678Z,46.2
2019-01-12T10:25:18.725Z,45.6
2019-01-12T10:26:08.818Z,45.1
2019-01-12T10:26:59.928Z,44.6
2019-01-12T10:27:48.898Z,44.1
2019-01-12T10:28:38.680Z,43.6
2019-01-12T10:29:29.016Z,43.1
2019-01-12T10:30:19.075Z,43.3
2019-01-12T10:31:09.118Z,44.4
2019-01-12T10:31:59.187Z,44.6
2019-01-12T10:32:49.240Z,45.4
2019-01-12T10:33:39.352Z,45.3
2019-01-12T10:34:29.353Z,48.2
2019-01-12T10:35:19.414Z,49.5
2019-01-12T10:36:09.467Z,48.9
2019-01-12T10:36:59.535Z,47.9
2019-01-12T10:37:49.318Z,47.4
2019-01-12T10:38:39.624Z,47.3
2019-01-12T10:39:29.408Z,47.4
2019-01-12T10:40:19.210Z,47.6
2019-01-12T10:41:09.814Z,47.6
2019-01-12T10:41:59.855Z,47.7
2019-01-12T10:42:49.962Z,47.7
2019-01-12T10:43:39.980Z,47.8
2019-01-12T10:44:30.079Z,47.8
2019-01-12T10:45:20.081Z,47.4
2019-01-12T10:46:09.584Z,47.2
2019-01-12T10:46:59.929Z,47.3
2019-01-12T10:47:50.262Z,47.4
2019-01-12T10:48:40.320Z,47.6
2019-01-12T10:49:30.097Z,47.6
2019-01-12T10:50:19.899Z,47.7
2019-01-12T10:51:09.934Z,47.8
2019-01-12T10:52:00.545Z,48
2019-01-12T10:52:50.601Z,48.1
2019-01-12T10:55:06.622Z,48.5
2019-01-12T10:55:56.692Z,48.6
2019-01-12T10:56:46.836Z,48.3
2019-01-12T10:57:36.791Z,48
2019-01-12T10:58:26.850Z,47.7
2019-01-12T10:59:16.911Z,47.1
2019-01-12T11:00:06.693Z,46.1
2019-01-12T11:00:56.740Z,45.6
2019-01-12T11:01:47.073Z,44.8
2019-01-12T11:02:37.138Z,43.9
2019-01-12T11:03:27.195Z,43.1
2019-01-12T11:04:17.245Z,42.3
2019-01-12T11:05:07.038Z,41.4
2019-01-12T11:05:57.093Z,40.8
2019-01-12T11:06:47.425Z,40
2019-01-12T11:07:37.202Z,39.4
2019-01-12T11:08:27.256Z,38.9
2019-01-12T11:09:17.598Z,38.4
2019-01-12T11:10:07.653Z,37.9
2019-01-12T11:10:57.706Z,37.5
2019-01-12T11:11:47.758Z,36.8
2019-01-12T11:12:37.537Z,36.6
2019-01-12T11:13:27.875Z,36.8
2019-01-12T11:14:17.931Z,37
2019-01-12T11:15:09.336Z,37.3
2019-01-12T11:15:57.770Z,37.1
2019-01-12T11:16:48.109Z,35.8
2019-01-12T11:17:38.160Z,34.9
2019-01-12T11:18:27.954Z,34.7
2019-01-12T11:19:18.272Z,34.1
2019-01-12T11:20:08.057Z,33.3
2019-01-12T11:20:58.388Z,32.4
2019-01-12T11:21:48.444Z,31.9
2019-01-12T11:22:38.224Z,31.4
2019-01-12T11:23:28.557Z,30.8
2019-01-12T11:24:18.615Z,30.2
2019-01-12T11:25:08.669Z,29.5
2019-01-12T11:25:58.452Z,29.1
2019-01-12T11:26:48.789Z,29.1
2019-01-12T11:27:38.851Z,29.3
2019-01-12T11:28:28.630Z,29.4
2019-01-12T11:29:18.954Z,29.3
2019-01-12T11:30:09.014Z,29.3
2019-01-12T11:30:59.071Z,29.3
2019-01-12T11:31:48.651Z,29.1
2019-01-12T11:32:39.191Z,29.1
2019-01-12T11:33:28.765Z,29.3
2019-01-12T11:34:18.823Z,29.1
2019-01-12T11:35:08.879Z,29.1
2019-01-12T11:35:58.934Z,29.1
2019-01-12T11:36:48.993Z,28.8
2019-01-12T11:37:39.059Z,28.4
2019-01-12T11:38:28.848Z,27.9
2019-01-12T11:39:19.180Z,27.9
2019-01-12T11:40:08.946Z,28.2
2019-01-12T11:40:59.281Z,28.3
2019-01-12T11:41:49.815Z,28.2
2019-01-12T11:42:39.875Z,28
2019-01-12T11:43:29.669Z,27.8
2019-01-12T11:44:19.766Z,27.6
2019-01-12T11:45:10.043Z,27.6
2019-01-12T11:46:00.100Z,27.3
2019-01-12T11:46:50.158Z,27.1
2019-01-12T11:47:39.940Z,27.1
2019-01-12T11:48:30.000Z,27
2019-01-12T11:49:20.333Z,26.9
2019-01-12T11:50:10.113Z,26.9
2019-01-12T11:51:00.180Z,26.9
2019-01-12T11:51:50.218Z,26.5
2019-01-12T11:52:40.567Z,26.1
2019-01-12T11:53:30.137Z,25.8
2019-01-12T11:54:20.677Z,25.7
2019-01-12T11:55:10.737Z,25.6
2019-01-12T11:56:00.801Z,25.8
2019-01-12T11:56:50.853Z,25.8
2019-01-12T11:57:40.428Z,25.8
2019-01-12T11:58:31.846Z,25.6
2019-01-12T11:59:20.545Z,25.6
2019-01-12T12:00:10.604Z,25.6
2019-01-12T12:01:00.657Z,25.6
2019-01-12T12:01:50.714Z,25.8
2019-01-12T12:02:40.779Z,25.8
2019-01-12T12:03:30.835Z,25.9
2019-01-12T12:04:20.882Z,26.1
2019-01-12T12:05:10.954Z,26.1
2019-01-12T12:06:01.002Z,26.1
2019-01-12T12:06:51.059Z,26.2
2019-01-12T12:07:41.124Z,26.3
2019-01-12T12:08:31.657Z,26.5
2019-01-12T12:09:21.714Z,26.7
2019-01-12T12:10:11.486Z,26.9
2019-01-12T12:11:01.554Z,27.2
2019-01-12T12:11:51.894Z,27.3
2019-01-12T12:12:41.938Z,27.4
2019-01-12T12:13:31.996Z,27.4
2019-01-12T12:14:21.779Z,27.6
2019-01-12T12:15:11.839Z,27.8
2019-01-12T12:16:03.016Z,27.9
2019-01-12T12:16:51.668Z,28.2
2019-01-12T12:17:42.291Z,28.4
2019-01-12T12:18:32.341Z,28.6
2019-01-12T12:19:22.402Z,28.8
2019-01-12T12:20:12.478Z,28.9
2019-01-12T12:21:02.520Z,29.1
2019-01-12T12:21:52.573Z,29.3
2019-01-12T12:22:42.636Z,29.3
2019-01-12T12:23:32.695Z,29.4
2019-01-12T12:24:22.749Z,29.1
2019-01-12T12:25:12.803Z,28.8
2019-01-12T12:26:02.870Z,28.5
2019-01-12T12:26:53.028Z,28.4
2019-01-12T12:27:42.988Z,28.5
2019-01-12T12:28:32.807Z,28.7
2019-01-12T12:29:23.095Z,28.7
2019-01-12T12:30:13.159Z,28.6
2019-01-12T12:31:03.213Z,28.7
2019-01-12T12:31:53.320Z,28.8
2019-01-12T12:32:43.057Z,28.8
2019-01-12T12:33:33.114Z,28.9
2019-01-12T12:34:23.443Z,28.9
2019-01-12T12:35:13.512Z,29.1
2019-01-12T12:36:03.568Z,28.9
2019-01-12T12:36:53.630Z,28.8
2019-01-12T12:37:43.690Z,28.8
2019-01-12T12:38:33.737Z,28.9
2019-01-12T12:39:23.789Z,28.6
2019-01-12T12:40:13.857Z,28.6
2019-01-12T12:41:03.922Z,28.4
2019-01-12T12:41:54.036Z,28.1
2019-01-12T12:42:44.034Z,28.2
2019-01-12T12:43:34.100Z,28.4
2019-01-12T12:44:24.182Z,28.6
2019-01-12T12:45:14.255Z,28.6
2019-01-12T12:46:04.279Z,28.7
2019-01-12T12:46:54.376Z,28.7
2019-01-12T12:47:44.378Z,28.7
2019-01-12T12:48:34.432Z,28.7
2019-01-12T12:49:24.487Z,28.7
2019-01-12T12:50:14.551Z,28.7
2019-01-12T12:51:04.609Z,28.8
2019-01-12T12:51:54.393Z,28.8
2019-01-12T12:52:44.724Z,28.8
2019-01-12T12:53:35.926Z,28.8
2019-01-12T12:54:24.848Z,28.6
2019-01-12T12:55:14.353Z,28.4
2019-01-12T12:56:04.966Z,28.4
2019-01-12T12:56:54.734Z,28.4
2019-01-12T12:57:45.073Z,28.6
2019-01-12T12:58:34.869Z,28.7
2019-01-12T12:59:25.005Z,28.8
2019-01-12T13:00:15.244Z,28.9
2019-01-12T13:01:05.026Z,28.8
2019-01-12T13:01:55.360Z,28.8
2019-01-12T13:02:45.426Z,28.9
2019-01-12T13:03:35.483Z,28.9
2019-01-12T13:04:25.263Z,29
2019-01-12T13:05:15.603Z,29
2019-01-12T13:06:05.653Z,29.1
2019-01-12T13:06:55.428Z,29.1
2019-01-12T13:07:45.770Z,29.1
2019-01-12T13:08:35.823Z,29.2
2019-01-12T13:09:25.612Z,29.3
2019-01-12T13:10:15.945Z,29.4
2019-01-12T13:11:05.728Z,29.4
2019-01-12T13:11:56.053Z,29.5
2019-01-12T13:12:45.835Z,29.4
2019-01-12T13:13:36.172Z,29.5
2019-01-12T13:14:26.227Z,29.6
2019-01-12T13:15:16.020Z,29.6
2019-01-12T13:16:06.357Z,29.6
2019-01-12T13:16:56.400Z,29.7
2019-01-12T13:17:46.462Z,29.7
2019-01-12T13:18:36.512Z,29.7
2019-01-12T13:19:26.586Z,29.8
2019-01-12T13:20:16.359Z,29.8
2019-01-12T13:21:06.422Z,29.9
2019-01-12T13:21:56.757Z,29.9
2019-01-12T13:22:46.814Z,30.1
2019-01-12T13:23:36.896Z,30.1
2019-01-12T13:24:26.925Z,30.1
2019-01-12T13:25:16.694Z,30.1
2019-01-12T13:26:07.037Z,30.1
2019-01-12T13:26:57.089Z,30.2
2019-01-12T13:27:47.154Z,30.2
2019-01-12T13:28:36.936Z,30.3
2019-01-12T13:29:27.259Z,30.3
2019-01-12T13:30:17.049Z,30.4
2019-01-12T13:31:07.112Z,30.4
2019-01-12T13:31:57.187Z,30.4
2019-01-12T13:32:47.493Z,30.4
2019-01-12T13:33:37.274Z,30.4
2019-01-12T13:34:27.339Z,30.4
2019-01-12T13:35:17.676Z,30.3
2019-01-12T13:36:07.461Z,30.4
2019-01-12T13:36:57.774Z,30.4
2019-01-12T13:37:47.834Z,30.4
2019-01-12T13:38:37.909Z,30.4
2019-01-12T13:39:33.266Z,30.4
2019-01-12T13:40:18.046Z,30.4
2019-01-12T13:41:07.801Z,30.4
2019-01-12T13:41:57.853Z,30.4
2019-01-12T13:42:47.911Z,30.4
2019-01-12T13:43:38.238Z,30.4
2019-01-12T13:44:27.475Z,30.4
2019-01-12T13:45:18.363Z,30.4
2019-01-12T13:46:08.136Z,30.4
2019-01-12T13:46:58.465Z,30.3
2019-01-12T13:47:48.528Z,30.3
2019-01-12T13:48:38.583Z,30.3
2019-01-12T13:49:28.648Z,30.2
2019-01-12T13:50:18.429Z,30.1
2019-01-12T13:51:08.755Z,29.6
2019-01-12T13:51:58.817Z,29.2
2019-01-12T13:52:48.890Z,29
2019-01-12T13:53:38.374Z,28.9
2019-01-12T13:54:29.020Z,28.9
2019-01-12T13:55:18.780Z,28.9
2019-01-12T13:56:08.820Z,28.9
2019-01-12T13:56:58.887Z,28.8
2019-01-12T13:57:49.702Z,28.7
2019-01-12T13:58:39.272Z,28.6
2019-01-12T13:59:29.062Z,28.6
2019-01-12T14:00:19.127Z,28.4
2019-01-12T14:01:09.452Z,28.4
2019-01-12T14:01:59.528Z,28.4
2019-01-12T14:02:49.564Z,28.4
2019-01-12T14:03:39.337Z,28.3
2019-01-12T14:04:29.677Z,28.1
2019-01-12T14:05:19.737Z,28.1
2019-01-12T14:06:09.797Z,28.1
2019-01-12T14:07:01.369Z,28.1
2019-01-12T14:07:57.382Z,28.1
2019-01-12T14:08:40.112Z,28.1
2019-01-12T14:09:30.022Z,28
2019-01-12T14:10:19.805Z,27.9
2019-01-12T14:11:09.883Z,27.9
2019-01-12T14:14:30.361Z,27.8
2019-01-12T14:15:20.153Z,27.7
2019-01-12T14:16:10.211Z,27.7
2019-01-12T14:17:00.259Z,27.6
2019-01-12T14:17:50.319Z,27.6
2019-01-12T14:18:40.651Z,27.4
2019-01-12T14:19:30.716Z,27.4
2019-01-12T14:20:20.778Z,27.4
2019-01-12T14:21:10.828Z,27.3
2019-01-12T14:22:00.883Z,27.3
2019-01-12T14:22:50.944Z,27.2
2019-01-12T14:23:40.710Z,27.1
2019-01-12T14:24:31.056Z,27.1
2019-01-12T14:25:21.123Z,27
2019-01-12T14:26:11.180Z,26.9
2019-01-12T14:27:01.227Z,26.9
2019-01-12T14:27:55.611Z,26.8
2019-01-12T14:28:41.390Z,26.7
2019-01-12T14:29:31.118Z,26.6
2019-01-12T14:30:21.445Z,26.2
2019-01-12T14:31:11.513Z,25.8
2019-01-12T14:32:01.555Z,25.4
2019-01-12T14:32:51.643Z,25.1
2019-01-12T14:33:41.695Z,24.8
2019-01-12T14:34:31.496Z,24.4
2019-01-12T14:35:21.797Z,24.2
2019-01-12T14:36:11.572Z,23.9
2019-01-12T14:37:01.907Z,23.6
2019-01-12T14:37:51.968Z,23.4
2019-01-12T14:38:42.064Z,23.1
2019-01-12T14:39:32.085Z,22.8
2019-01-12T14:40:22.140Z,22.5
2019-01-12T14:41:12.195Z,22.3
2019-01-12T14:42:01.985Z,21.9
2019-01-12T14:42:52.310Z,21.7
2019-01-12T14:43:42.361Z,21.4
2019-01-12T14:45:22.202Z,20.9
2019-01-12T14:46:12.282Z,20.6
2019-01-12T14:47:02.672Z,20.4
2019-01-12T14:47:52.649Z,20.1
2019-01-12T14:48:42.720Z,19.8
2019-01-12T14:49:32.774Z,19.6
2019-01-12T14:50:22.818Z,19.3
2019-01-12T14:51:12.906Z,19
2019-01-12T14:52:02.114Z,18.8
2019-01-12T14:52:52.724Z,18.5
2019-01-12T14:53:42.781Z,18.3
2019-01-12T14:54:33.109Z,18
2019-01-12T14:55:23.179Z,17.8
2019-01-12T14:56:12.946Z,17.5
2019-01-12T14:57:03.283Z,17.3
2019-01-12T14:57:53.475Z,16.9
2019-01-12T14:58:43.492Z,16.7
2019-01-12T14:59:33.184Z,16.5
2019-01-12T15:00:23.317Z,16.3
2019-01-12T15:01:13.611Z,16
2019-01-12T15:02:03.707Z,15.8
2019-01-12T15:02:53.682Z,15.5
2019-01-12T15:03:43.822Z,15.3
2019-01-12T15:04:33.520Z,15.1
2019-01-12T15:05:23.870Z,14.8
2019-01-12T15:06:13.901Z,14.6
2019-01-12T15:07:03.476Z,14.3
2019-01-12T15:07:53.743Z,14.1
2019-01-12T15:08:43.523Z,13.9
2019-01-12T15:09:33.857Z,13.6
2019-01-12T15:10:23.687Z,13.4
2019-01-12T15:11:13.982Z,13.2
2019-01-12T15:12:04.296Z,13
2019-01-12T15:12:54.075Z,12.8
2019-01-12T15:13:44.418Z,12.5
2019-01-12T15:14:34.473Z,12.3
2019-01-12T15:15:24.527Z,12.1
2019-01-12T15:16:14.582Z,11.9
2019-01-12T15:17:54.412Z,11.4
2019-01-12T15:18:44.750Z,11.3
2019-01-12T15:19:34.807Z,11.1
2019-01-12T15:20:24.874Z,10.9
2019-01-12T15:21:14.911Z,10.7
2019-01-12T15:22:04.993Z,10.4
2019-01-12T15:22:55.031Z,10.3
2019-01-12T15:23:45.091Z,10.1
2019-01-12T15:24:35.143Z,9.9
2019-01-12T15:25:25.198Z,9.8
2019-01-12T15:26:15.253Z,9.6
2019-01-12T15:27:05.316Z,9.4
2019-01-12T15:27:55.368Z,9.2
2019-01-12T15:28:45.153Z,9
2019-01-12T15:29:35.485Z,8.9
2019-01-12T15:30:25.278Z,8.7
2019-01-12T15:31:15.601Z,8.5
2019-01-12T15:32:05.655Z,8.3
2019-01-12T15:32:55.718Z,8.2
2019-01-12T15:33:45.258Z,8
2019-01-12T15:34:35.822Z,7.9
2019-01-12T15:35:25.881Z,7.7
2019-01-12T15:36:15.662Z,7.6
2019-01-12T15:37:05.982Z,7.4
2019-01-12T15:37:56.053Z,7.3
2019-01-12T15:38:46.132Z,7.1
2019-01-12T15:39:36.167Z,6.9
2019-01-12T15:40:26.213Z,6.8
2019-01-12T15:41:16.262Z,6.7
2019-01-12T15:42:06.324Z,6.6
2019-01-12T15:42:56.379Z,6.4
2019-01-12T15:43:46.165Z,6.3
2019-01-12T15:44:36.500Z,6.1
2019-01-12T15:45:26.560Z,6
2019-01-12T15:46:16.612Z,5.9
2019-01-12T15:47:06.669Z,5.8
2019-01-12T15:47:56.442Z,5.6
2019-01-12T15:48:46.787Z,5.5
2019-01-12T15:49:36.839Z,5.4
2019-01-12T15:50:26.631Z,5.3